createdAt,value
2018-01-13T00:01:42.582Z,7.20
2018-01-13T00:04:10.340Z,7.20
2018-01-13T00:06:37.768Z,7.10
2018-01-13T00:09:05.221Z,7.10
2018-01-13T00:11:32.923Z,7.10
2018-01-13T00:14:00.378Z,7.10
2018-01-13T00:16:28.039Z,7.00
2018-01-13T00:18:55.636Z,7.00
2018-01-13T00:21:23.081Z,6.90
2018-01-13T00:23:50.541Z,6.90
2018-01-13T00:26:17.993Z,6.80
2018-01-13T00:28:45.960Z,6.90
2018-01-13T00:31:13.398Z,6.90
2018-01-13T00:33:40.845Z,6.80
2018-01-13T00:36:08.348Z,6.90
2018-01-13T00:38:36.132Z,6.80
2018-01-13T00:41:03.708Z,6.80
2018-01-13T00:43:31.466Z,6.80
2018-01-13T00:45:58.908Z,6.80
2018-01-13T00:48:26.361Z,6.80
2018-01-13T00:50:53.856Z,6.80
2018-01-13T00:53:21.552Z,6.80
2018-01-13T00:55:49.020Z,6.80
2018-01-13T00:58:16.458Z,6.70
2018-01-13T01:00:43.904Z,6.70
2018-01-13T01:03:11.354Z,6.70
2018-01-13T01:05:38.820Z,6.70
2018-01-13T01:08:06.392Z,6.60
2018-01-13T01:10:33.834Z,6.60
2018-01-13T01:13:01.404Z,6.60
2018-01-13T01:15:28.954Z,6.60
2018-01-13T01:17:56.736Z,6.60
2018-01-13T01:20:24.234Z,6.50
2018-01-13T01:22:51.621Z,6.50
2018-01-13T01:25:19.069Z,6.50
2018-01-13T01:27:46.525Z,6.50
2018-01-13T01:30:14.361Z,6.50
2018-01-13T01:32:41.939Z,6.50
2018-01-13T01:35:09.394Z,6.50
2018-01-13T01:37:36.857Z,6.50
2018-01-13T01:40:04.330Z,6.50
2018-01-13T01:42:31.818Z,6.50
2018-01-13T01:45:02.292Z,6.50
2018-01-13T01:47:29.752Z,6.50
2018-01-13T01:49:57.216Z,6.50
2018-01-13T01:52:24.989Z,6.50
2018-01-13T01:54:55.740Z,6.50
2018-01-13T01:59:57.713Z,6.40
2018-01-13T02:02:25.139Z,6.40
2018-01-13T02:04:52.587Z,6.40
2018-01-13T02:07:20.043Z,6.30
2018-01-13T02:09:47.583Z,6.30
2018-01-13T02:12:15.012Z,6.30
2018-01-13T02:14:42.460Z,6.20
2018-01-13T02:17:09.908Z,6.20
2018-01-13T02:19:37.437Z,6.10
2018-01-13T02:22:04.885Z,6.10
2018-01-13T02:24:32.448Z,6.10
2018-01-13T02:26:59.939Z,6.10
2018-01-13T02:29:27.572Z,6.00
2018-01-13T02:31:55.032Z,6.00
2018-01-13T02:34:22.476Z,6.00
2018-01-13T02:36:50.184Z,5.90
2018-01-13T02:39:17.624Z,5.90
2018-01-13T02:41:45.061Z,5.90
2018-01-13T02:44:12.529Z,5.90
2018-01-13T02:46:40.397Z,5.90
2018-01-13T02:49:07.853Z,5.90
2018-01-13T02:51:35.298Z,5.80
2018-01-13T02:54:02.763Z,5.80
2018-01-13T02:56:30.203Z,5.80
2018-01-13T02:58:57.645Z,5.80
2018-01-13T03:01:25.868Z,5.90
2018-01-13T03:03:53.328Z,5.80
2018-01-13T03:06:20.777Z,5.90
2018-01-13T03:08:48.234Z,5.90
2018-01-13T03:11:15.679Z,5.90
2018-01-13T03:13:43.596Z,5.90
2018-01-13T03:16:11.048Z,5.90
2018-01-13T03:18:38.495Z,5.80
2018-01-13T03:21:06.380Z,5.80
2018-01-13T03:23:33.834Z,5.90
2018-01-13T03:26:01.269Z,5.90
2018-01-13T03:28:28.720Z,5.90
2018-01-13T03:30:56.162Z,5.90
2018-01-13T03:33:23.880Z,5.90
2018-01-13T03:35:51.320Z,5.90
2018-01-13T03:38:18.760Z,5.90
2018-01-13T03:40:46.233Z,5.90
2018-01-13T03:43:13.680Z,5.80
2018-01-13T03:45:41.141Z,5.80
2018-01-13T03:48:08.968Z,5.90
2018-01-13T03:50:36.416Z,6.00
2018-01-13T03:53:03.864Z,6.00
2018-01-13T03:55:31.300Z,5.90
2018-01-13T03:57:58.840Z,5.90
2018-01-13T04:00:26.301Z,5.90
2018-01-13T04:02:53.957Z,5.90
2018-01-13T04:05:21.420Z,5.90
2018-01-13T04:07:49.281Z,5.80
2018-01-13T04:10:17.131Z,5.80
2018-01-13T04:12:44.543Z,5.80
2018-01-13T04:15:11.981Z,5.80
2018-01-13T04:17:39.528Z,5.80
2018-01-13T04:20:06.966Z,5.80
2018-01-13T04:22:34.861Z,5.80
2018-01-13T04:25:02.292Z,5.80
2018-01-13T04:27:29.727Z,5.80
2018-01-13T04:29:57.201Z,5.80
2018-01-13T04:32:25.560Z,5.80
2018-01-13T04:34:53.410Z,5.90
2018-01-13T04:37:20.849Z,5.90
2018-01-13T04:39:49.450Z,5.90
2018-01-13T04:42:16.892Z,5.80
2018-01-13T04:44:44.336Z,5.80
2018-01-13T04:47:11.828Z,5.70
2018-01-13T04:49:39.280Z,5.70
2018-01-13T04:52:06.720Z,5.80
2018-01-13T04:54:34.184Z,5.70
2018-01-13T04:57:01.628Z,5.70
2018-01-13T04:59:29.644Z,5.70
2018-01-13T05:01:57.512Z,5.70
2018-01-13T05:04:24.944Z,5.60
2018-01-13T05:06:52.416Z,5.60
2018-01-13T05:09:19.854Z,5.60
2018-01-13T05:11:48.078Z,5.60
2018-01-13T05:14:15.534Z,5.60
2018-01-13T05:16:42.982Z,5.60
2018-01-13T05:19:10.433Z,5.70
2018-01-13T05:21:37.869Z,5.70
2018-01-13T05:24:05.348Z,5.70
2018-01-13T05:26:32.788Z,5.70
2018-01-13T05:29:00.325Z,5.70
2018-01-13T05:31:27.779Z,5.70
2018-01-13T05:33:55.262Z,5.70
2018-01-13T05:36:22.740Z,5.70
2018-01-13T05:38:50.181Z,5.70
2018-01-13T05:41:17.620Z,5.70
2018-01-13T05:43:45.158Z,5.60
2018-01-13T05:46:12.604Z,5.70
2018-01-13T05:48:40.136Z,5.70
2018-01-13T05:51:07.590Z,5.70
2018-01-13T05:53:35.429Z,5.80
2018-01-13T05:56:05.554Z,5.80
2018-01-13T05:58:33.126Z,5.80
2018-01-13T06:01:00.588Z,5.80
2018-01-13T06:03:28.028Z,5.80
2018-01-13T06:06:02.009Z,5.80
2018-01-13T06:08:29.545Z,5.90
2018-01-13T06:10:56.988Z,5.90
2018-01-13T06:13:24.457Z,5.90
2018-01-13T06:15:51.905Z,5.80
2018-01-13T06:18:19.349Z,5.70
2018-01-13T06:20:46.801Z,5.70
2018-01-13T06:23:14.236Z,5.70
2018-01-13T06:25:41.708Z,5.70
2018-01-13T06:28:09.184Z,5.70
2018-01-13T06:30:36.619Z,5.70
2018-01-13T06:33:04.076Z,5.80
2018-01-13T06:35:31.771Z,5.80
2018-01-13T06:37:59.291Z,5.90
2018-01-13T06:40:26.741Z,5.90
2018-01-13T06:42:54.949Z,5.90
2018-01-13T06:45:22.590Z,5.90
2018-01-13T06:47:50.050Z,6.00
2018-01-13T06:50:17.513Z,6.00
2018-01-13T06:52:44.960Z,6.00
2018-01-13T06:55:12.396Z,6.10
2018-01-13T06:57:39.861Z,6.10
2018-01-13T07:00:07.309Z,6.10
2018-01-13T07:02:35.084Z,6.10
2018-01-13T07:05:02.537Z,6.10
2018-01-13T07:07:29.980Z,6.20
2018-01-13T07:09:58.524Z,6.20
2018-01-13T07:12:25.969Z,6.20
2018-01-13T07:14:53.668Z,6.20
2018-01-13T07:17:21.100Z,6.20
2018-01-13T07:19:48.556Z,6.20
2018-01-13T07:22:16.044Z,6.20
2018-01-13T07:24:43.495Z,6.20
2018-01-13T07:27:11.241Z,6.20
2018-01-13T07:29:38.713Z,6.20
2018-01-13T07:32:06.173Z,6.30
2018-01-13T07:34:33.644Z,6.30
2018-01-13T07:37:01.084Z,6.30
2018-01-13T07:39:28.545Z,6.30
2018-01-13T07:41:55.992Z,6.30
2018-01-13T07:44:23.459Z,6.30
2018-01-13T07:46:50.912Z,6.30
2018-01-13T07:49:18.355Z,6.30
2018-01-13T07:51:46.160Z,6.30
2018-01-13T07:54:13.613Z,6.30
2018-01-13T07:56:41.093Z,6.30
2018-01-13T07:59:08.548Z,6.30
2018-01-13T08:01:36.221Z,6.40
2018-01-13T08:04:03.716Z,6.30
2018-01-13T08:06:31.147Z,6.40
2018-01-13T08:08:58.592Z,6.40
2018-01-13T08:11:26.064Z,6.40
2018-01-13T08:13:53.831Z,6.40
2018-01-13T08:16:21.505Z,6.40
2018-01-13T08:18:48.974Z,6.50
2018-01-13T08:21:16.413Z,6.50
2018-01-13T08:23:43.869Z,6.40
2018-01-13T08:26:11.741Z,6.40
2018-01-13T08:28:39.183Z,6.40
2018-01-13T08:31:06.623Z,6.50
2018-01-13T08:33:34.479Z,6.50
2018-01-13T08:36:01.915Z,6.50
2018-01-13T08:38:29.356Z,6.50
2018-01-13T08:40:57.230Z,6.50
2018-01-13T08:43:24.697Z,6.50
2018-01-13T08:45:52.244Z,6.60
2018-01-13T08:48:19.709Z,6.50
2018-01-13T08:50:47.157Z,6.60
2018-01-13T08:53:14.604Z,6.60
2018-01-13T08:55:42.050Z,6.60
2018-01-13T08:58:09.491Z,6.60
2018-01-13T09:00:36.937Z,6.60
2018-01-13T09:03:04.632Z,6.60
2018-01-13T09:05:32.128Z,6.60
2018-01-13T09:07:59.577Z,6.60
2018-01-13T09:10:27.022Z,6.60
2018-01-13T09:12:54.454Z,6.60
2018-01-13T09:15:22.120Z,6.70
2018-01-13T09:17:49.957Z,6.70
2018-01-13T09:20:17.435Z,6.70
2018-01-13T09:22:44.862Z,6.60
2018-01-13T09:25:12.339Z,6.60
2018-01-13T09:27:39.904Z,6.70
2018-01-13T09:30:07.351Z,6.70
2018-01-13T09:32:34.795Z,6.70
2018-01-13T09:35:02.260Z,6.70
2018-01-13T09:37:29.701Z,6.70
2018-01-13T09:39:58.556Z,6.90
2018-01-13T09:42:26.004Z,6.90
2018-01-13T09:44:53.435Z,6.90
2018-01-13T09:47:20.903Z,7.00
2018-01-13T09:49:48.359Z,7.00
2018-01-13T09:52:15.815Z,7.00
2018-01-13T09:54:43.736Z,7.00
2018-01-13T09:57:11.172Z,7.10
2018-01-13T09:59:38.620Z,7.10
2018-01-13T10:02:06.101Z,7.20
2018-01-13T10:04:33.561Z,7.20
2018-01-13T10:07:01.151Z,7.20
2018-01-13T10:09:28.604Z,7.20
2018-01-13T10:11:56.061Z,7.20
2018-01-13T10:14:23.511Z,7.20
2018-01-13T10:16:51.004Z,7.30
2018-01-13T10:19:18.482Z,7.40
2018-01-13T10:21:45.912Z,7.40
2018-01-13T10:24:13.355Z,7.50
2018-01-13T10:26:41.121Z,7.60
2018-01-13T10:29:08.562Z,7.60
2018-01-13T10:31:36.014Z,7.60
2018-01-13T10:34:03.474Z,7.60
2018-01-13T10:36:30.920Z,7.60
2018-01-13T10:38:58.364Z,7.60
2018-01-13T10:41:25.927Z,7.60
2018-01-13T10:43:53.698Z,7.60
2018-01-13T10:46:21.260Z,7.60
2018-01-13T10:48:48.723Z,7.60
2018-01-13T10:51:16.593Z,7.70
2018-01-13T10:53:44.039Z,7.80
2018-01-13T10:56:11.732Z,7.90
2018-01-13T10:58:39.177Z,8.00
2018-01-13T11:01:06.611Z,8.20
2018-01-13T11:03:34.069Z,8.30
2018-01-13T11:06:01.531Z,8.30
2018-01-13T11:08:28.971Z,8.40
2018-01-13T11:10:56.435Z,8.40
2018-01-13T11:13:23.855Z,8.60
2018-01-13T11:15:51.553Z,8.60
2018-01-13T11:18:19.761Z,8.90
2018-01-13T11:20:47.199Z,8.80
2018-01-13T11:23:14.648Z,9.00
2018-01-13T11:25:42.204Z,9.30
2018-01-13T11:28:09.659Z,9.50
2018-01-13T11:30:37.099Z,9.70
2018-01-13T11:33:04.529Z,9.80
2018-01-13T11:35:32.007Z,9.90
2018-01-13T11:37:59.440Z,9.90
2018-01-13T11:40:27.235Z,10.00
2018-01-13T11:42:54.673Z,9.90
2018-01-13T11:45:22.464Z,9.90
2018-01-13T11:47:50.337Z,9.90
2018-01-13T11:50:18.628Z,9.90
2018-01-13T11:52:46.469Z,10.00
2018-01-13T11:55:13.932Z,10.00
2018-01-13T11:57:41.371Z,9.80
2018-01-13T12:00:08.821Z,9.80
2018-01-13T12:02:36.286Z,9.70
2018-01-13T12:05:03.725Z,9.70
2018-01-13T12:07:33.873Z,9.50
2018-01-13T12:10:01.328Z,9.50
2018-01-13T12:12:29.165Z,9.50
2018-01-13T12:14:57.024Z,9.30
2018-01-13T12:17:24.897Z,9.20
2018-01-13T12:19:52.340Z,9.10
2018-01-13T12:22:19.770Z,9.00
2018-01-13T12:24:47.242Z,9.00
2018-01-13T12:27:14.699Z,9.20
2018-01-13T12:29:42.515Z,9.30
2018-01-13T12:32:09.953Z,9.30
2018-01-13T12:34:37.416Z,9.50
2018-01-13T12:37:04.866Z,9.70
2018-01-13T12:39:32.292Z,9.90
2018-01-13T12:42:00.836Z,9.90
2018-01-13T12:44:28.319Z,9.80
2018-01-13T12:46:56.065Z,9.80
2018-01-13T12:49:23.525Z,9.70
2018-01-13T12:51:50.957Z,9.60
2018-01-13T12:54:18.419Z,9.50
2018-01-13T12:56:45.861Z,9.40
2018-01-13T12:59:13.294Z,9.40
2018-01-13T13:01:40.867Z,9.30
2018-01-13T13:04:08.323Z,9.20
2018-01-13T13:06:35.976Z,9.20
2018-01-13T13:09:03.409Z,9.10
2018-01-13T13:11:30.856Z,9.10
2018-01-13T13:13:59.070Z,9.10
2018-01-13T13:16:26.517Z,9.00
2018-01-13T13:18:54.877Z,9.10
2018-01-13T13:21:22.561Z,9.10
2018-01-13T13:23:50.011Z,9.00
2018-01-13T13:26:17.465Z,8.80
2018-01-13T13:28:44.899Z,8.70
2018-01-13T13:31:12.364Z,8.70
2018-01-13T13:33:39.794Z,8.60
2018-01-13T13:36:07.261Z,8.60
2018-01-13T13:38:34.728Z,8.70
2018-01-13T13:41:02.201Z,8.60
2018-01-13T13:43:30.046Z,8.50
2018-01-13T13:45:57.491Z,8.40
2018-01-13T13:48:24.923Z,8.40
2018-01-13T13:50:52.381Z,8.30
2018-01-13T13:53:19.989Z,8.30
2018-01-13T13:55:47.436Z,8.20
2018-01-13T13:58:14.902Z,8.10
2018-01-13T14:00:42.351Z,8.10
2018-01-13T14:03:09.801Z,8.00
2018-01-13T14:05:37.315Z,8.00
2018-01-13T14:08:04.764Z,8.00
2018-01-13T14:10:32.204Z,8.00
2018-01-13T14:12:59.644Z,7.90
2018-01-13T14:15:27.098Z,8.00
2018-01-13T14:17:54.686Z,7.90
2018-01-13T14:20:22.128Z,7.80
2018-01-13T14:22:49.569Z,7.70
2018-01-13T14:25:17.800Z,7.70
2018-01-13T14:27:45.247Z,7.60
2018-01-13T14:30:12.676Z,7.60
2018-01-13T14:32:40.274Z,7.60
2018-01-13T14:35:07.707Z,7.50
2018-01-13T14:37:35.466Z,7.50
2018-01-13T14:40:03.233Z,7.50
2018-01-13T14:42:30.672Z,7.50
2018-01-13T14:44:58.388Z,7.40
2018-01-13T14:47:25.829Z,7.40
2018-01-13T14:49:53.270Z,7.40
2018-01-13T14:52:20.721Z,7.40
2018-01-13T14:54:48.575Z,7.40
2018-01-13T14:57:16.020Z,7.40
2018-01-13T14:59:43.467Z,7.40
2018-01-13T15:02:10.913Z,7.40
2018-01-13T15:04:38.391Z,7.40
2018-01-13T15:07:05.824Z,7.40
2018-01-13T15:09:33.276Z,7.40
2018-01-13T15:12:00.725Z,7.40
2018-01-13T15:14:28.159Z,7.40
2018-01-13T15:16:55.629Z,7.30
2018-01-13T15:19:23.082Z,7.30
2018-01-13T15:21:50.546Z,7.30
2018-01-13T15:24:18.008Z,7.20
2018-01-13T15:26:45.453Z,7.20
2018-01-13T15:29:13.033Z,7.20
2018-01-13T15:31:40.477Z,7.20
2018-01-13T15:34:08.005Z,7.20
2018-01-13T15:36:36.205Z,7.10
2018-01-13T15:39:03.653Z,7.10
2018-01-13T15:41:31.139Z,7.10
2018-01-13T15:43:58.583Z,7.10
2018-01-13T15:46:26.861Z,7.10
2018-01-13T15:48:54.668Z,7.10
2018-01-13T15:51:22.449Z,7.10
2018-01-13T15:53:49.906Z,7.10
2018-01-13T15:56:17.367Z,7.10
2018-01-13T15:58:44.846Z,7.10
2018-01-13T16:01:12.293Z,7.10
2018-01-13T16:03:39.732Z,7.10
2018-01-13T16:06:07.192Z,7.10
2018-01-13T16:08:34.656Z,7.10
2018-01-13T16:11:02.408Z,7.10
2018-01-13T16:13:29.841Z,7.10
2018-01-13T16:15:57.278Z,7.00
2018-01-13T16:18:24.729Z,7.00
2018-01-13T16:20:52.179Z,7.00
2018-01-13T16:23:19.914Z,7.00
2018-01-13T16:25:47.365Z,7.00
2018-01-13T16:28:14.808Z,7.00
2018-01-13T16:30:42.244Z,7.00
2018-01-13T16:33:09.691Z,7.00
2018-01-13T16:35:37.443Z,7.00
2018-01-13T16:38:04.887Z,7.00
2018-01-13T16:40:32.346Z,7.00
2018-01-13T16:42:59.809Z,7.00
2018-01-13T16:45:27.247Z,7.10
2018-01-13T16:47:55.184Z,7.00
2018-01-13T16:50:22.627Z,7.00
2018-01-13T16:52:50.075Z,7.00
2018-01-13T16:55:17.507Z,7.00
2018-01-13T16:57:44.940Z,6.90
2018-01-13T17:00:12.785Z,6.90
2018-01-13T17:02:40.276Z,6.90
2018-01-13T17:05:07.720Z,7.00
2018-01-13T17:07:36.986Z,7.00
2018-01-13T17:10:04.429Z,6.90
2018-01-13T17:12:32.257Z,7.00
2018-01-13T17:14:59.709Z,6.90
2018-01-13T17:17:27.149Z,6.90
2018-01-13T17:19:54.604Z,6.90
2018-01-13T17:22:22.060Z,6.90
2018-01-13T17:24:50.639Z,6.90
2018-01-13T17:27:18.069Z,6.80
2018-01-13T17:29:45.517Z,6.90
2018-01-13T17:32:12.973Z,6.90
2018-01-13T17:34:40.421Z,6.80
2018-01-13T17:37:07.877Z,6.80
2018-01-13T17:39:35.306Z,6.80
2018-01-13T17:42:03.840Z,6.80
2018-01-13T17:44:31.296Z,6.80
2018-01-13T17:46:58.760Z,6.80
2018-01-13T17:49:26.220Z,6.80
2018-01-13T17:51:53.992Z,6.80
2018-01-13T17:54:21.462Z,6.80
2018-01-13T17:56:48.912Z,6.70
2018-01-13T17:59:16.382Z,6.70
2018-01-13T18:01:43.833Z,6.70
2018-01-13T18:04:11.311Z,6.70
2018-01-13T18:06:38.969Z,6.70
2018-01-13T18:09:06.415Z,6.80
2018-01-13T18:11:33.857Z,6.80
2018-01-13T18:14:01.322Z,6.70
2018-01-13T18:16:28.756Z,6.70
2018-01-13T18:18:56.202Z,6.70
2018-01-13T18:21:23.865Z,6.70
2018-01-13T18:23:51.299Z,6.70
2018-01-13T18:26:18.765Z,6.70
2018-01-13T18:28:46.221Z,6.60
2018-01-13T18:31:13.687Z,6.60
2018-01-13T18:33:41.144Z,6.60
2018-01-13T18:36:08.588Z,6.60
2018-01-13T18:38:36.053Z,6.60
2018-01-13T18:41:03.496Z,6.70
2018-01-13T18:43:30.944Z,6.70
2018-01-13T18:45:58.392Z,6.70
2018-01-13T18:48:26.597Z,6.70
2018-01-13T18:50:54.073Z,6.60
2018-01-13T18:53:21.838Z,6.70
2018-01-13T18:55:49.263Z,6.70
2018-01-13T18:58:16.724Z,6.60
2018-01-13T19:00:44.351Z,6.60
2018-01-13T19:03:11.806Z,6.60
2018-01-13T19:05:39.252Z,6.60
2018-01-13T19:08:06.688Z,6.60
2018-01-13T19:10:34.921Z,6.50
2018-01-13T19:13:02.365Z,6.50
2018-01-13T19:15:29.830Z,6.50
2018-01-13T19:17:57.292Z,6.50
2018-01-13T19:20:24.733Z,6.50
2018-01-13T19:22:52.225Z,6.50
2018-01-13T19:25:19.680Z,6.50
2018-01-13T19:27:47.133Z,6.50
2018-01-13T19:30:14.572Z,6.50
2018-01-13T19:32:42.016Z,6.50
2018-01-13T19:35:09.474Z,6.50
2018-01-13T19:37:40.807Z,6.40
2018-01-13T19:40:08.422Z,6.40
2018-01-13T19:42:35.906Z,6.40
2018-01-13T19:45:03.373Z,6.40
2018-01-13T19:47:30.836Z,6.40
2018-01-13T19:49:58.287Z,6.40
2018-01-13T19:52:25.736Z,6.40
2018-01-13T19:55:00.161Z,6.40
2018-01-13T19:57:27.689Z,6.30
2018-01-13T19:59:55.129Z,6.30
2018-01-13T20:02:22.576Z,6.30
2018-01-13T20:04:50.161Z,6.30
2018-01-13T20:07:17.997Z,6.30
2018-01-13T20:09:45.449Z,6.30
2018-01-13T20:12:12.904Z,6.30
2018-01-13T20:14:40.363Z,6.30
2018-01-13T20:17:07.817Z,6.30
2018-01-13T20:19:35.264Z,6.30
2018-01-13T20:22:02.720Z,6.30
2018-01-13T20:24:30.186Z,6.30
2018-01-13T20:26:57.642Z,6.20
2018-01-13T20:29:25.100Z,6.20
2018-01-13T20:31:52.537Z,6.20
2018-01-13T20:34:20.398Z,6.30
2018-01-13T20:36:47.851Z,6.30
2018-01-13T20:39:15.301Z,6.30
2018-01-13T20:41:42.765Z,6.30
2018-01-13T20:44:10.211Z,6.30
2018-01-13T20:46:37.838Z,6.30
2018-01-13T20:49:05.264Z,6.30
2018-01-13T20:51:32.745Z,6.30
2018-01-13T20:54:00.223Z,6.30
2018-01-13T20:56:27.743Z,6.20
2018-01-13T20:58:55.200Z,6.30
2018-01-13T21:01:22.637Z,6.30
2018-01-13T21:03:50.138Z,6.30
2018-01-13T21:06:17.613Z,6.20
2018-01-13T21:08:45.049Z,6.20
2018-01-13T21:11:12.508Z,6.20
2018-01-13T21:13:40.198Z,6.20
2018-01-13T21:16:07.628Z,6.20
2018-01-13T21:18:35.115Z,6.20
2018-01-13T21:21:02.576Z,6.10
2018-01-13T21:23:30.025Z,6.10
2018-01-13T21:25:57.472Z,6.10
2018-01-13T21:28:24.909Z,6.10
2018-01-13T21:30:52.385Z,6.00
2018-01-13T21:33:19.809Z,6.00
2018-01-13T21:35:47.321Z,6.00
2018-01-13T21:38:14.756Z,6.00
2018-01-13T21:40:42.369Z,5.90
2018-01-13T21:43:09.821Z,5.90
2018-01-13T21:45:37.257Z,6.00
2018-01-13T21:48:04.716Z,6.00
2018-01-13T21:50:32.148Z,6.00
2018-01-13T21:52:59.969Z,6.00
2018-01-13T21:55:27.553Z,6.00
2018-01-13T21:57:54.999Z,6.00
2018-01-13T22:00:22.465Z,6.00
2018-01-13T22:02:49.911Z,6.00
2018-01-13T22:05:17.360Z,6.00
2018-01-13T22:07:44.835Z,6.00
2018-01-13T22:10:12.280Z,6.00
2018-01-13T22:12:39.747Z,6.00
2018-01-13T22:15:07.199Z,6.00
2018-01-13T22:17:34.636Z,6.00
2018-01-13T22:20:02.622Z,6.00
2018-01-13T22:22:30.061Z,6.00
2018-01-13T22:24:59.241Z,6.00
2018-01-13T22:27:26.702Z,5.90
2018-01-13T22:29:54.140Z,5.90
2018-01-13T22:32:21.586Z,5.90
2018-01-13T22:34:49.027Z,6.00
2018-01-13T22:37:16.486Z,5.90
2018-01-13T22:39:43.927Z,5.90
2018-01-13T22:42:11.382Z,5.90
2018-01-13T22:44:38.854Z,5.90
2018-01-13T22:47:07.098Z,5.90
2018-01-13T22:49:34.565Z,5.80
2018-01-13T22:52:02.041Z,5.90
2018-01-13T22:54:29.491Z,5.90
2018-01-13T22:56:56.950Z,5.90
2018-01-13T22:59:24.595Z,5.80
2018-01-13T23:01:52.054Z,5.80
2018-01-13T23:04:19.506Z,5.80
2018-01-13T23:06:46.948Z,5.90
2018-01-13T23:09:14.411Z,5.90
2018-01-13T23:11:41.846Z,5.80
2018-01-13T23:14:09.297Z,5.90
2018-01-13T23:16:36.755Z,5.90
2018-01-13T23:19:04.200Z,5.90
2018-01-13T23:21:31.652Z,5.90
2018-01-13T23:23:59.105Z,5.80
2018-01-13T23:26:26.554Z,5.80
2018-01-13T23:28:53.990Z,5.80
2018-01-13T23:31:21.445Z,5.80
2018-01-13T23:33:48.897Z,5.70
2018-01-13T23:36:16.347Z,5.70
2018-01-13T23:38:43.805Z,5.60
2018-01-13T23:41:11.240Z,5.60
2018-01-13T23:43:38.684Z,5.60
2018-01-13T23:46:06.152Z,5.60
2018-01-13T23:48:34.242Z,5.60
2018-01-13T23:51:01.688Z,5.50
2018-01-13T23:53:29.130Z,5.60
2018-01-13T23:55:56.564Z,5.50
2018-01-13T23:58:24.013Z,5.50
